createdAt,value
2023-05-12T00:00:11.050Z,100491.16
2023-05-12T00:02:42.827Z,100492.22
2023-05-12T00:05:09.784Z,100482.28
2023-05-12T00:07:36.662Z,100482.81
2023-05-12T00:10:03.631Z,100481.75
2023-05-12T00:12:30.364Z,100479.84
2023-05-12T00:14:56.962Z,100477.44
2023-05-12T00:17:23.673Z,100480.66
2023-05-12T00:19:50.524Z,100482.03
2023-05-12T00:22:17.249Z,100484.97
2023-05-12T00:24:43.978Z,100487.16
2023-05-12T00:27:10.746Z,100488.78
2023-05-12T00:29:37.696Z,100482.88
2023-05-12T00:32:04.692Z,100485.03
2023-05-12T00:34:31.439Z,100478.00
2023-05-12T00:36:58.165Z,100472.84
2023-05-12T00:39:24.828Z,100476.63
2023-05-12T00:41:59.086Z,100474.78
2023-05-12T00:44:25.983Z,100473.69
2023-05-12T00:46:53.225Z,100474.22
2023-05-12T00:49:20.897Z,100471.50
2023-05-12T00:51:47.827Z,100470.94
2023-05-12T00:54:14.494Z,100475.78
2023-05-12T00:56:41.323Z,100471.97
2023-05-12T00:59:09.001Z,100466.34
2023-05-12T01:01:39.594Z,100464.75
2023-05-12T01:04:06.476Z,100466.66
2023-05-12T01:06:54.216Z,100463.97
2023-05-12T01:09:21.365Z,100466.66
2023-05-12T01:11:48.353Z,100463.41
2023-05-12T01:14:15.761Z,100460.16
2023-05-12T01:16:54.347Z,100451.28
2023-05-12T01:19:41.759Z,100459.63
2023-05-12T01:22:12.315Z,100459.09
2023-05-12T01:24:48.205Z,100462.06
2023-05-12T01:27:17.301Z,100455.13
2023-05-12T01:29:46.643Z,100457.56
2023-05-12T01:32:15.756Z,100461.56
2023-05-12T01:34:43.557Z,100456.97
2023-05-12T01:37:12.699Z,100456.94
2023-05-12T01:39:42.918Z,100460.16
2023-05-12T01:42:15.191Z,100460.72
2023-05-12T01:44:41.885Z,100459.91
2023-05-12T01:47:11.195Z,100455.34
2023-05-12T01:49:39.528Z,100458.03
2023-05-12T01:52:09.724Z,100461.31
2023-05-12T01:54:36.425Z,100460.22
2023-05-12T01:57:03.388Z,100458.03
2023-05-12T01:59:50.059Z,100458.03
2023-05-12T02:02:16.811Z,100460.22
2023-05-12T02:04:43.653Z,100462.16
2023-05-12T02:07:10.939Z,100463.00
2023-05-12T02:09:37.900Z,100469.97
2023-05-12T02:12:05.124Z,100467.59
2023-05-12T02:14:31.804Z,100468.91
2023-05-12T02:16:58.638Z,100461.69
2023-05-12T02:19:25.817Z,100470.59
2023-05-12T02:21:54.869Z,100469.47
2023-05-12T02:24:21.653Z,100456.06
2023-05-12T02:26:48.769Z,100456.31
2023-05-12T02:29:15.524Z,100467.91
2023-05-12T02:31:42.721Z,100461.44
2023-05-12T02:34:15.838Z,100467.91
2023-05-12T02:36:42.538Z,100465.19
2023-05-12T02:39:09.409Z,100461.19
2023-05-12T02:41:36.146Z,100464.13
2023-05-12T02:44:02.894Z,100464.94
2023-05-12T02:46:29.644Z,100462.78
2023-05-12T02:48:56.280Z,100457.97
2023-05-12T02:51:23.161Z,100455.53
2023-05-12T02:53:49.849Z,100456.34
2023-05-12T02:56:17.980Z,100457.69
2023-05-12T02:58:44.760Z,100462.53
2023-05-12T03:01:11.967Z,100455.53
2023-05-12T03:03:40.868Z,100455.50
2023-05-12T03:06:08.196Z,100455.22
2023-05-12T03:08:35.000Z,100457.44
2023-05-12T03:11:03.180Z,100455.81
2023-05-12T03:13:29.823Z,100454.47
2023-05-12T03:16:01.123Z,100458.25
2023-05-12T03:18:31.150Z,100467.66
2023-05-12T03:20:57.992Z,100464.19
2023-05-12T03:23:25.020Z,100466.88
2023-05-12T03:25:51.803Z,100462.03
2023-05-12T03:28:18.612Z,100462.06
2023-05-12T03:30:45.493Z,100462.31
2023-05-12T03:33:12.444Z,100461.53
2023-05-12T03:35:39.584Z,100461.25
2023-05-12T03:38:06.318Z,100463.16
2023-05-12T03:40:33.063Z,100459.88
2023-05-12T03:42:59.833Z,100458.78
2023-05-12T03:45:26.630Z,100455.56
2023-05-12T03:47:53.610Z,100465.78
2023-05-12T03:50:20.459Z,100454.47
2023-05-12T03:52:47.228Z,100460.38
2023-05-12T03:55:14.311Z,100458.75
2023-05-12T03:57:42.635Z,100470.31
2023-05-12T04:00:09.964Z,100460.38
2023-05-12T04:02:39.878Z,100461.19
2023-05-12T04:05:08.663Z,100459.28
2023-05-12T04:07:35.832Z,100455.53
2023-05-12T04:10:03.047Z,100463.06
2023-05-12T04:12:30.018Z,100464.19
2023-05-12T04:14:57.356Z,100464.97
2023-05-12T04:17:24.529Z,100459.88
2023-05-12T04:19:53.498Z,100469.56
2023-05-12T04:22:20.286Z,100469.31
2023-05-12T04:24:47.097Z,100470.94
2023-05-12T04:27:14.626Z,100466.34
2023-05-12T04:29:41.908Z,100474.72
2023-05-12T04:32:09.239Z,100470.66
2023-05-12T04:34:36.450Z,100471.22
2023-05-12T04:37:03.165Z,100471.72
2023-05-12T04:39:30.247Z,100472.81
2023-05-12T04:41:57.912Z,100466.34
2023-05-12T04:44:24.913Z,100466.59
2023-05-12T04:46:54.163Z,100474.13
2023-05-12T04:49:20.925Z,100479.75
2023-05-12T04:51:48.001Z,100481.91
2023-05-12T04:54:14.825Z,100482.16
2023-05-12T04:56:42.489Z,100487.78
2023-05-12T04:59:09.589Z,100488.03
2023-05-12T05:01:36.371Z,100485.56
2023-05-12T05:04:03.381Z,100490.13
2023-05-12T05:06:30.800Z,100489.53
2023-05-12T05:08:58.417Z,100499.47
2023-05-12T05:11:25.894Z,100497.28
2023-05-12T05:13:52.626Z,100493.44
2023-05-12T05:16:20.134Z,100493.41
2023-05-12T05:18:47.832Z,100491.72
2023-05-12T05:21:14.636Z,100492.78
2023-05-12T05:23:42.510Z,100495.22
2023-05-12T05:26:09.632Z,100494.41
2023-05-12T05:28:37.346Z,100500.88
2023-05-12T05:31:04.745Z,100498.16
2023-05-12T05:33:32.151Z,100508.41
2023-05-12T05:35:59.493Z,100507.59
2023-05-12T05:38:27.215Z,100507.03
2023-05-12T05:40:54.695Z,100507.81
2023-05-12T05:43:23.464Z,100510.22
2023-05-12T05:45:51.356Z,100514.16
2023-05-12T05:48:19.924Z,100510.88
2023-05-12T05:50:47.139Z,100511.78
2023-05-12T05:53:14.035Z,100518.03
2023-05-12T05:55:40.870Z,100508.34
2023-05-12T05:58:07.745Z,100513.72
2023-05-12T06:00:34.516Z,100517.75
2023-05-12T06:03:01.622Z,100517.72
2023-05-12T06:05:28.480Z,100512.91
2023-05-12T06:07:55.618Z,100518.06
2023-05-12T06:10:22.686Z,100530.78
2023-05-12T06:12:50.537Z,100528.88
2023-05-12T06:15:18.739Z,100535.38
2023-05-12T06:17:45.697Z,100535.97
2023-05-12T06:20:15.190Z,100537.28
2023-05-12T06:22:44.752Z,100531.63
2023-05-12T06:25:11.466Z,100540.75
2023-05-12T06:27:38.284Z,100537.50
2023-05-12T06:30:06.499Z,100540.19
2023-05-12T06:32:33.457Z,100542.28
2023-05-12T06:35:00.211Z,100542.03
2023-05-12T06:37:27.575Z,100538.53
2023-05-12T06:39:54.295Z,100543.66
2023-05-12T06:42:23.860Z,100546.38
2023-05-12T06:44:51.960Z,100549.06
2023-05-12T06:47:20.804Z,100548.50
2023-05-12T06:49:50.020Z,100557.78
2023-05-12T06:52:17.122Z,100554.94
2023-05-12T06:54:43.869Z,100552.25
2023-05-12T06:57:10.837Z,100551.69
2023-05-12T06:59:37.514Z,100550.00
2023-05-12T07:02:04.336Z,100553.00
2023-05-12T07:04:31.107Z,100552.81
2023-05-12T07:06:57.838Z,100555.28
2023-05-12T07:09:24.567Z,100559.41
2023-05-12T07:11:51.272Z,100561.78
2023-05-12T07:14:17.877Z,100565.19
2023-05-12T07:16:44.583Z,100557.38
2023-05-12T07:19:11.293Z,100558.75
2023-05-12T07:21:38.057Z,100559.38
2023-05-12T07:24:06.414Z,100555.97
2023-05-12T07:26:33.403Z,100559.34
2023-05-12T07:29:00.795Z,100556.13
2023-05-12T07:31:28.001Z,100560.22
2023-05-12T07:33:54.820Z,100557.81
2023-05-12T07:36:22.318Z,100556.38
2023-05-12T07:38:49.214Z,100554.63
2023-05-12T07:41:16.055Z,100549.00
2023-05-12T07:43:42.797Z,100556.34
2023-05-12T07:46:09.632Z,100557.13
2023-05-12T07:48:40.017Z,100552.41
2023-05-12T07:51:08.030Z,100558.16
2023-05-12T07:53:34.933Z,100553.06
2023-05-12T07:56:01.843Z,100549.88
2023-05-12T07:58:28.627Z,100551.06
2023-05-12T08:00:56.730Z,100552.44
2023-05-12T08:03:23.429Z,100547.84
2023-05-12T08:05:50.310Z,100556.81
2023-05-12T08:08:17.211Z,100551.09
2023-05-12T08:10:44.415Z,100549.44
2023-05-12T08:13:11.525Z,100558.22
2023-05-12T08:15:38.751Z,100557.88
2023-05-12T08:18:05.676Z,100562.13
2023-05-12T08:20:32.483Z,100553.94
2023-05-12T08:22:59.575Z,100557.66
2023-05-12T08:25:30.393Z,100556.81
2023-05-12T08:27:59.305Z,100552.50
2023-05-12T08:30:27.139Z,100559.31
2023-05-12T08:32:55.362Z,100556.75
2023-05-12T08:35:23.678Z,100558.09
2023-05-12T08:37:50.413Z,100550.66
2023-05-12T08:40:25.073Z,100558.19
2023-05-12T08:43:06.925Z,100559.69
2023-05-12T08:45:38.170Z,100558.81
2023-05-12T08:48:06.887Z,100566.97
2023-05-12T08:50:36.871Z,100560.78
2023-05-12T08:53:16.391Z,100565.00
2023-05-12T08:55:58.665Z,100561.19
2023-05-12T08:58:41.716Z,100573.09
2023-05-12T09:01:12.403Z,100565.25
2023-05-12T09:03:39.513Z,100563.84
2023-05-12T09:06:07.108Z,100562.19
2023-05-12T09:08:34.960Z,100555.78
2023-05-12T09:11:02.689Z,100563.63
2023-05-12T09:13:49.633Z,100566.47
2023-05-12T09:16:23.129Z,100566.16
2023-05-12T09:18:58.405Z,100569.16
2023-05-12T09:21:27.057Z,100568.69
2023-05-12T09:24:05.969Z,100569.75
2023-05-12T09:26:45.430Z,100566.63
2023-05-12T09:29:20.763Z,100567.22
2023-05-12T09:31:52.432Z,100567.41
2023-05-12T09:34:20.512Z,100562.56
2023-05-12T09:36:58.941Z,100563.63
2023-05-12T09:39:25.849Z,100568.16
2023-05-12T09:41:53.516Z,100566.59
2023-05-12T09:44:21.025Z,100566.25
2023-05-12T09:46:49.139Z,100568.72
2023-05-12T09:49:21.104Z,100559.28
2023-05-12T09:51:55.089Z,100563.41
2023-05-12T09:54:29.551Z,100552.38
2023-05-12T09:57:02.424Z,100564.41
2023-05-12T09:59:34.961Z,100561.03
2023-05-12T10:02:05.596Z,100564.03
2023-05-12T10:04:41.801Z,100560.63
2023-05-12T10:07:11.942Z,100566.34
2023-05-12T10:09:42.368Z,100565.06
2023-05-12T10:12:10.281Z,100562.03
2023-05-12T10:14:38.074Z,100557.56
2023-05-12T10:17:06.653Z,100559.13
2023-05-12T10:19:35.463Z,100565.19
2023-05-12T10:22:03.991Z,100563.91
2023-05-12T10:24:31.049Z,100562.78
2023-05-12T10:26:59.630Z,100563.41
2023-05-12T10:29:30.517Z,100562.34
2023-05-12T10:31:58.273Z,100560.19
2023-05-12T10:34:33.966Z,100560.13
2023-05-12T10:37:01.307Z,100553.72
2023-05-12T10:39:29.961Z,100554.16
2023-05-12T10:42:25.609Z,100562.03
2023-05-12T10:44:56.682Z,100560.97
2023-05-12T10:47:27.078Z,100558.16
2023-05-12T10:50:00.510Z,100566.88
2023-05-12T10:52:27.553Z,100558.78
2023-05-12T10:55:01.746Z,100563.09
2023-05-12T10:57:28.891Z,100559.00
2023-05-12T11:00:01.106Z,100560.81
2023-05-12T11:02:34.945Z,100556.09
2023-05-12T11:05:05.197Z,100562.91
2023-05-12T11:07:35.403Z,100557.78
2023-05-12T11:10:05.395Z,100554.53
2023-05-12T11:12:35.983Z,100548.94
2023-05-12T11:15:04.831Z,100553.53
2023-05-12T11:17:32.167Z,100562.44
2023-05-12T11:20:00.777Z,100551.66
2023-05-12T11:22:28.063Z,100557.13
2023-05-12T11:24:54.887Z,100562.81
2023-05-12T11:27:23.362Z,100549.22
2023-05-12T11:30:02.815Z,100549.78
2023-05-12T11:32:30.138Z,100552.72
2023-05-12T11:35:09.901Z,100551.13
2023-05-12T11:37:37.894Z,100552.41
2023-05-12T11:40:16.033Z,100550.22
2023-05-12T11:42:48.334Z,100557.94
2023-05-12T11:45:26.585Z,100555.69
2023-05-12T11:47:54.389Z,100550.69
2023-05-12T11:50:24.815Z,100554.06
2023-05-12T11:52:53.091Z,100556.66
2023-05-12T11:55:24.429Z,100551.53
2023-05-12T11:58:00.241Z,100561.13
2023-05-12T12:00:29.234Z,100554.72
2023-05-12T12:03:14.125Z,100559.09
2023-05-12T12:05:45.707Z,100571.84
2023-05-12T12:08:16.363Z,100563.38
2023-05-12T12:10:47.281Z,100574.25
2023-05-12T12:13:21.514Z,100571.16
2023-05-12T12:15:49.226Z,100571.13
2023-05-12T12:18:16.730Z,100563.56
2023-05-12T12:20:43.982Z,100569.25
2023-05-12T12:23:11.153Z,100566.28
2023-05-12T12:25:37.869Z,100565.31
2023-05-12T12:28:05.284Z,100564.13
2023-05-12T12:30:31.947Z,100575.75
2023-05-12T12:32:58.758Z,100578.09
2023-05-12T12:35:25.615Z,100580.03
2023-05-12T12:37:52.592Z,100573.81
2023-05-12T12:40:20.261Z,100575.38
2023-05-12T12:42:47.206Z,100581.53
2023-05-12T12:45:14.020Z,100582.63
2023-05-12T12:47:40.934Z,100571.66
2023-05-12T12:50:10.010Z,100579.09
2023-05-12T12:52:38.466Z,100578.16
2023-05-12T12:55:08.764Z,100574.63
2023-05-12T12:57:35.497Z,100580.41
2023-05-12T13:00:04.625Z,100578.16
2023-05-12T13:02:31.562Z,100589.19
2023-05-12T13:04:58.433Z,100588.19
2023-05-12T13:07:25.908Z,100592.97
2023-05-12T13:09:52.601Z,100586.09
2023-05-12T13:12:19.475Z,100586.06
2023-05-12T13:14:46.227Z,100591.78
2023-05-12T13:17:13.352Z,100595.72
2023-05-12T13:19:40.178Z,100591.72
2023-05-12T13:22:06.945Z,100591.72
2023-05-12T13:24:33.706Z,100593.97
2023-05-12T13:27:00.438Z,100596.34
2023-05-12T13:29:27.314Z,100601.13
2023-05-12T13:31:54.581Z,100595.53
2023-05-12T13:34:21.427Z,100600.44
2023-05-12T13:36:48.565Z,100597.69
2023-05-12T13:39:15.780Z,100599.94
2023-05-12T13:41:43.844Z,100597.06
2023-05-12T13:44:10.634Z,100606.41
2023-05-12T13:46:37.361Z,100599.25
2023-05-12T13:49:04.095Z,100592.09
2023-05-12T13:51:32.326Z,100595.38
2023-05-12T13:53:59.075Z,100602.94
2023-05-12T13:56:25.904Z,100597.00
2023-05-12T13:58:52.819Z,100609.28
2023-05-12T14:01:19.807Z,100611.34
2023-05-12T14:03:46.585Z,100608.38
2023-05-12T14:06:13.308Z,100604.13
2023-05-12T14:08:41.635Z,100610.41
2023-05-12T14:11:09.045Z,100616.72
2023-05-12T14:13:35.789Z,100618.09
2023-05-12T14:16:02.735Z,100619.44
2023-05-12T14:18:29.655Z,100621.66
2023-05-12T14:20:57.168Z,100623.91
2023-05-12T14:23:24.230Z,100619.22
2023-05-12T14:25:51.440Z,100614.38
2023-05-12T14:28:18.261Z,100620.09
2023-05-12T14:30:45.265Z,100618.81
2023-05-12T14:33:13.885Z,100610.47
2023-05-12T14:35:40.755Z,100609.69
2023-05-12T14:38:07.388Z,100617.81
2023-05-12T14:40:34.164Z,100625.97
2023-05-12T14:43:00.921Z,100617.53
2023-05-12T14:45:29.522Z,100616.59
2023-05-12T14:48:18.958Z,100614.69
2023-05-12T14:51:09.124Z,100616.72
2023-05-12T14:53:41.960Z,100616.53
2023-05-12T14:56:08.780Z,100616.84
2023-05-12T14:58:35.662Z,100620.03
2023-05-12T15:01:02.934Z,100622.94
2023-05-12T15:03:29.722Z,100621.09
2023-05-12T15:06:06.520Z,100621.34
2023-05-12T15:08:34.441Z,100625.25
2023-05-12T15:11:01.182Z,100628.25
2023-05-12T15:13:27.850Z,100626.47
2023-05-12T15:15:56.506Z,100632.78
2023-05-12T15:18:23.993Z,100634.19
2023-05-12T15:20:50.845Z,100631.47
2023-05-12T15:23:17.591Z,100627.34
2023-05-12T15:25:44.482Z,100631.22
2023-05-12T15:28:11.460Z,100626.00
2023-05-12T15:30:38.085Z,100632.09
2023-05-12T15:33:06.162Z,100638.34
2023-05-12T15:35:33.569Z,100635.06
2023-05-12T15:38:00.390Z,100634.00
2023-05-12T15:40:27.129Z,100639.03
2023-05-12T15:42:53.916Z,100643.31
2023-05-12T15:45:21.039Z,100637.19
2023-05-12T15:47:48.141Z,100636.69
2023-05-12T15:50:19.723Z,100644.41
2023-05-12T15:52:47.374Z,100632.47
2023-05-12T15:55:14.409Z,100635.72
2023-05-12T15:57:41.957Z,100640.72
2023-05-12T16:00:09.097Z,100636.13
2023-05-12T16:02:41.769Z,100631.09
2023-05-12T16:05:09.730Z,100641.44
2023-05-12T16:07:36.732Z,100639.72
2023-05-12T16:10:03.871Z,100642.31
2023-05-12T16:12:31.022Z,100638.59
2023-05-12T16:14:57.971Z,100638.28
2023-05-12T16:17:25.103Z,100646.25
2023-05-12T16:19:53.560Z,100645.13
2023-05-12T16:22:20.294Z,100644.72
2023-05-12T16:24:47.242Z,100651.28
2023-05-12T16:27:13.957Z,100654.06
2023-05-12T16:29:45.244Z,100651.38
2023-05-12T16:32:12.101Z,100653.56
2023-05-12T16:34:38.998Z,100653.19
2023-05-12T16:37:05.905Z,100655.41
2023-05-12T16:39:34.082Z,100653.28
2023-05-12T16:42:00.892Z,100651.78
2023-05-12T16:44:28.089Z,100650.78
2023-05-12T16:46:54.769Z,100646.22
2023-05-12T16:49:21.572Z,100647.34
2023-05-12T16:51:48.299Z,100653.38
2023-05-12T16:54:15.087Z,100645.34
2023-05-12T16:56:41.864Z,100653.00
2023-05-12T16:59:08.481Z,100658.00
2023-05-12T17:01:36.107Z,100656.00
2023-05-12T17:04:03.146Z,100665.84
2023-05-12T17:06:29.905Z,100665.56
2023-05-12T17:08:56.527Z,100667.56
2023-05-12T17:11:24.662Z,100662.63
2023-05-12T17:13:51.332Z,100660.63
2023-05-12T17:16:18.192Z,100659.81
2023-05-12T17:21:14.969Z,100661.03
2023-05-12T17:23:41.885Z,100669.84
2023-05-12T17:26:08.637Z,100672.47
2023-05-12T17:28:35.321Z,100675.06
2023-05-12T17:31:02.395Z,100675.06
2023-05-12T17:33:29.524Z,100669.66
2023-05-12T17:36:10.872Z,100674.66
2023-05-12T17:38:40.108Z,100681.25
2023-05-12T17:41:06.812Z,100677.47
2023-05-12T17:43:33.525Z,100676.16
2023-05-12T17:46:00.594Z,100682.38
2023-05-12T17:48:27.597Z,100670.53
2023-05-12T17:50:54.286Z,100679.78
2023-05-12T17:53:21.601Z,100673.22
2023-05-12T17:55:48.562Z,100678.22
2023-05-12T17:58:15.588Z,100677.38
2023-05-12T18:00:42.395Z,100683.53
2023-05-12T18:03:09.331Z,100686.84
2023-05-12T18:05:36.586Z,100691.16
2023-05-12T18:08:03.438Z,100689.13
2023-05-12T18:10:30.191Z,100693.53
2023-05-12T18:12:56.864Z,100693.59
2023-05-12T18:15:24.690Z,100685.56
2023-05-12T18:17:51.655Z,100692.06
2023-05-12T18:20:18.955Z,100697.03
2023-05-12T18:22:45.713Z,100694.34
2023-05-12T18:25:15.427Z,100697.69
2023-05-12T18:27:42.438Z,100698.13
2023-05-12T18:30:09.820Z,100707.72
2023-05-12T18:32:36.591Z,100705.28
2023-05-12T18:35:03.970Z,100709.13
2023-05-12T18:37:30.677Z,100705.47
2023-05-12T18:39:58.452Z,100705.28
2023-05-12T18:42:29.073Z,100704.31
2023-05-12T18:44:55.873Z,100708.75
2023-05-12T18:47:22.579Z,100708.28
2023-05-12T18:49:49.381Z,100704.81
2023-05-12T18:52:16.240Z,100711.34
2023-05-12T18:54:44.136Z,100713.53
2023-05-12T18:57:11.353Z,100725.19
2023-05-12T18:59:38.340Z,100732.53
2023-05-12T19:02:05.188Z,100730.13
2023-05-12T19:04:32.012Z,100728.78
2023-05-12T19:06:58.652Z,100726.66
2023-05-12T19:09:25.290Z,100733.94
2023-05-12T19:11:51.945Z,100733.47
2023-05-12T19:14:18.649Z,100741.84
2023-05-12T19:16:46.771Z,100746.19
2023-05-12T19:19:13.723Z,100748.13
2023-05-12T19:21:40.827Z,100750.31
2023-05-12T19:24:08.482Z,100763.28
2023-05-12T19:26:35.202Z,100757.94
2023-05-12T19:29:02.203Z,100771.47
2023-05-12T19:31:30.202Z,100773.06
2023-05-12T19:33:56.928Z,100778.19
2023-05-12T19:36:23.753Z,100782.78
2023-05-12T19:38:50.505Z,100787.66
2023-05-12T19:41:17.171Z,100785.25
2023-05-12T19:43:43.832Z,100799.03
2023-05-12T19:46:10.835Z,100792.00
2023-05-12T19:48:37.598Z,100790.94
2023-05-12T19:51:04.396Z,100793.09
2023-05-12T19:53:31.236Z,100792.00
2023-05-12T19:55:58.211Z,100790.94
2023-05-12T19:58:26.395Z,100792.00
2023-05-12T20:00:54.362Z,100793.97
2023-05-12T20:03:21.382Z,100798.00
2023-05-12T20:05:48.754Z,100803.44
2023-05-12T20:08:15.594Z,100803.50
2023-05-12T20:10:42.233Z,100800.00
2023-05-12T20:13:08.924Z,100800.31
2023-05-12T20:15:35.933Z,100805.19
2023-05-12T20:18:02.764Z,100806.25
2023-05-12T20:20:29.614Z,100796.28
2023-05-12T20:22:56.342Z,100803.56
2023-05-12T20:25:23.579Z,100806.22
2023-05-12T20:27:50.550Z,100803.78
2023-05-12T20:30:17.364Z,100801.41
2023-05-12T20:32:44.084Z,100807.38
2023-05-12T20:35:10.989Z,100803.66
2023-05-12T20:37:38.788Z,100807.72
2023-05-12T20:40:07.134Z,100801.28
2023-05-12T20:42:33.879Z,100805.88
2023-05-12T20:45:00.682Z,100806.44
2023-05-12T20:47:27.705Z,100809.13
2023-05-12T20:49:57.574Z,100812.91
2023-05-12T20:52:28.735Z,100811.56
2023-05-12T20:54:58.015Z,100820.47
2023-05-12T20:57:25.636Z,100816.69
2023-05-12T20:59:52.829Z,100813.16
2023-05-12T21:02:20.132Z,100820.47
2023-05-12T21:04:46.895Z,100820.19
2023-05-12T21:07:13.748Z,100829.34
2023-05-12T21:09:40.648Z,100825.28
2023-05-12T21:12:09.257Z,100825.28
2023-05-12T21:14:43.976Z,100830.69
2023-05-12T21:17:12.022Z,100826.41
2023-05-12T21:19:40.237Z,100830.69
2023-05-12T21:22:10.583Z,100835.28
2023-05-12T21:24:38.041Z,100835.03
2023-05-12T21:27:05.861Z,100839.31
2023-05-12T21:29:33.501Z,100842.59
2023-05-12T21:32:00.881Z,100839.63
2023-05-12T21:34:28.137Z,100845.56
2023-05-12T21:36:55.085Z,100848.28
2023-05-12T21:39:22.175Z,100848.00
2023-05-12T21:41:49.084Z,100847.47
2023-05-12T21:44:16.286Z,100842.13
2023-05-12T21:46:43.325Z,100845.06
2023-05-12T21:49:10.276Z,100850.19
2023-05-12T21:51:37.161Z,100842.13
2023-05-12T21:54:03.999Z,100842.13
2023-05-12T21:56:30.722Z,100847.03
2023-05-12T21:58:57.371Z,100843.78
2023-05-12T22:01:24.096Z,100844.84
2023-05-12T22:03:51.302Z,100847.56
2023-05-12T22:06:18.166Z,100849.19
2023-05-12T22:08:44.873Z,100850.78
2023-05-12T22:11:11.620Z,100848.09
2023-05-12T22:13:38.340Z,100845.41
2023-05-12T22:16:05.292Z,100849.69
2023-05-12T22:18:34.757Z,100853.47
2023-05-12T22:21:01.449Z,100851.31
2023-05-12T22:23:28.078Z,100857.50
2023-05-12T22:25:54.881Z,100853.47
2023-05-12T22:28:21.578Z,100854.28
2023-05-12T22:30:48.276Z,100866.44
2023-05-12T22:33:14.938Z,100861.56
2023-05-12T22:35:42.183Z,100868.03
2023-05-12T22:38:08.858Z,100859.91
2023-05-12T22:40:36.589Z,100869.63
2023-05-12T22:43:03.415Z,100856.94
2023-05-12T22:45:30.110Z,100859.91
2023-05-12T22:47:56.824Z,100861.53
2023-05-12T22:50:23.902Z,100850.75
2023-05-12T22:52:52.954Z,100848.63
2023-05-12T22:55:19.887Z,100848.88
2023-05-12T22:57:46.660Z,100847.28
2023-05-12T23:00:13.913Z,100852.13
2023-05-12T23:02:40.786Z,100849.69
2023-05-12T23:05:07.841Z,100847.03
2023-05-12T23:07:34.503Z,100851.88
2023-05-12T23:10:01.359Z,100846.75
2023-05-12T23:12:28.277Z,100845.41
2023-05-12T23:14:55.073Z,100840.59
2023-05-12T23:17:22.226Z,100846.75
2023-05-12T23:19:49.021Z,100837.59
2023-05-12T23:22:15.924Z,100845.69
2023-05-12T23:24:44.191Z,100842.72
2023-05-12T23:27:11.043Z,100841.13
2023-05-12T23:29:37.816Z,100844.06
2023-05-12T23:32:04.977Z,100843.53
2023-05-12T23:34:31.782Z,100847.31
2023-05-12T23:36:58.517Z,100833.53
2023-05-12T23:39:25.318Z,100841.63
2023-05-12T23:41:52.141Z,100836.22
2023-05-12T23:44:19.077Z,100833.00
2023-05-12T23:46:46.505Z,100839.50
2023-05-12T23:49:13.342Z,100832.50
2023-05-12T23:51:40.110Z,100823.59
2023-05-12T23:54:07.222Z,100835.72
2023-05-12T23:56:34.233Z,100837.59
2023-05-12T23:59:01.400Z,100836.25
